sensor_id;sensor_type;location;lat;lon;timestamp;pressure;altitude;pressure_sealevel;temperature;humidity
38558;BME280;24333;42.626;23.308;2022-11-20T00:01:49;91567.44;;;16.01;91.04
38558;BME280;24333;42.626;23.308;2022-11-20T00:04:14;91561.38;;;15.89;91.92
38558;BME280;24333;42.626;23.308;2022-11-20T00:07:14;91598.72;;;16.07;92.12
38558;BME280;24333;42.626;23.308;2022-11-20T00:10:03;91582.72;;;16.02;91.69
38558;BME280;24333;42.626;23.308;2022-11-20T00:12:29;91578.06;;;15.99;93.68
38558;BME280;24333;42.626;23.308;2022-11-20T00:14:55;91570.69;;;15.96;94.49
38558;BME280;24333;42.626;23.308;2022-11-20T00:24:08;91566.66;;;15.80;95.40
38558;BME280;24333;42.626;23.308;2022-11-20T00:26:35;91552.41;;;15.85;94.41
38558;BME280;24333;42.626;23.308;2022-11-20T00:42:01;91561.38;;;15.89;93.93
38558;BME280;24333;42.626;23.308;2022-11-20T00:55:05;91588.16;;;15.85;88.77
38558;BME280;24333;42.626;23.308;2022-11-20T00:57:36;91572.41;;;15.86;89.34
38558;BME280;24333;42.626;23.308;2022-11-20T01:00:02;91564.84;;;15.94;88.83
38558;BME280;24333;42.626;23.308;2022-11-20T01:05:12;91539.25;;;15.76;89.27
38558;BME280;24333;42.626;23.308;2022-11-20T02:00:24;91507.03;;;15.37;91.28
38558;BME280;24333;42.626;23.308;2022-11-20T02:03:01;91521.38;;;15.48;90.17
38558;BME280;24333;42.626;23.308;2022-11-20T02:12:21;91559.47;;;15.46;90.86
38558;BME280;24333;42.626;23.308;2022-11-20T02:15:06;91546.44;;;15.50;90.02
38558;BME280;24333;42.626;23.308;2022-11-20T02:17:32;91534.50;;;15.37;90.29
38558;BME280;24333;42.626;23.308;2022-11-20T02:22:40;91548.34;;;15.53;90.74
38558;BME280;24333;42.626;23.308;2022-11-20T02:48:28;91557.22;;;15.41;94.35
38558;BME280;24333;42.626;23.308;2022-11-20T02:50:54;91580.16;;;15.51;95.33
38558;BME280;24333;42.626;23.308;2022-11-20T02:53:22;91573.69;;;15.41;97.34
38558;BME280;24333;42.626;23.308;2022-11-20T03:40:49;91602.41;;;15.36;100.00
38558;BME280;24333;42.626;23.308;2022-11-20T03:43:15;91609.94;;;15.32;100.00
38558;BME280;24333;42.626;23.308;2022-11-20T03:58:58;91603.88;;;15.21;100.00
38558;BME280;24333;42.626;23.308;2022-11-20T04:01:46;91629.69;;;15.23;100.00
38558;BME280;24333;42.626;23.308;2022-11-20T04:09:28;91642.59;;;15.26;99.90
38558;BME280;24333;42.626;23.308;2022-11-20T04:37:51;91636.63;;;15.08;100.00
38558;BME280;24333;42.626;23.308;2022-11-20T04:40:17;91616.72;;;15.03;100.00
38558;BME280;24333;42.626;23.308;2022-11-20T04:42:43;91615.97;;;14.99;100.00
38558;BME280;24333;42.626;23.308;2022-11-20T04:45:09;91609.41;;;14.93;100.00
38558;BME280;24333;42.626;23.308;2022-11-20T04:47:35;91606.66;;;14.93;100.00
38558;BME280;24333;42.626;23.308;2022-11-20T04:50:02;91622.97;;;15.04;100.00
38558;BME280;24333;42.626;23.308;2022-11-20T04:52:35;91624.81;;;14.87;100.00
38558;BME280;24333;42.626;23.308;2022-11-20T04:55:00;91628.63;;;14.93;100.00
38558;BME280;24333;42.626;23.308;2022-11-20T04:57:26;91631.00;;;14.91;100.00
38558;BME280;24333;42.626;23.308;2022-11-20T04:59:53;91600.34;;;14.96;100.00
38558;BME280;24333;42.626;23.308;2022-11-20T05:02:19;91595.16;;;15.02;100.00
38558;BME280;24333;42.626;23.308;2022-11-20T05:04:45;91607.13;;;14.88;100.00
38558;BME280;24333;42.626;23.308;2022-11-20T05:07:29;91600.16;;;14.83;100.00
38558;BME280;24333;42.626;23.308;2022-11-20T05:09:55;91609.84;;;14.92;100.00
38558;BME280;24333;42.626;23.308;2022-11-20T05:12:21;91607.13;;;14.88;100.00
38558;BME280;24333;42.626;23.308;2022-11-20T05:14:47;91607.94;;;14.88;100.00
38558;BME280;24333;42.626;23.308;2022-11-20T05:17:13;91579.38;;;14.82;100.00
38558;BME280;24333;42.626;23.308;2022-11-20T05:19:39;91602.50;;;14.85;100.00
38558;BME280;24333;42.626;23.308;2022-11-20T05:22:05;91593.31;;;14.71;100.00
38558;BME280;24333;42.626;23.308;2022-11-20T05:37:55;91557.78;;;14.60;100.00
38558;BME280;24333;42.626;23.308;2022-11-20T05:41:14;91578.56;;;14.58;100.00
38558;BME280;24333;42.626;23.308;2022-11-20T05:48:53;91584.69;;;14.69;100.00
38558;BME280;24333;42.626;23.308;2022-11-20T07:55:05;91608.31;;;15.35;100.00
38558;BME280;24333;42.626;23.308;2022-11-20T08:44:52;91650.34;;;15.31;100.00
38558;BME280;24333;42.626;23.308;2022-11-20T08:51:00;91684.34;;;14.90;100.00
38558;BME280;24333;42.626;23.308;2022-11-20T08:53:37;91664.94;;;14.46;100.00
38558;BME280;24333;42.626;23.308;2022-11-20T09:29:25;91654.66;;;12.58;100.00
38558;BME280;24333;42.626;23.308;2022-11-20T09:31:51;91643.66;;;12.66;100.00
38558;BME280;24333;42.626;23.308;2022-11-20T09:34:18;91683.72;;;12.94;100.00
38558;BME280;24333;42.626;23.308;2022-11-20T09:36:44;91666.81;;;13.07;100.00
38558;BME280;24333;42.626;23.308;2022-11-20T09:39:10;91672.84;;;13.33;100.00
38558;BME280;24333;42.626;23.308;2022-11-20T09:48:40;91643.94;;;13.70;100.00
38558;BME280;24333;42.626;23.308;2022-11-20T09:51:28;91636.34;;;13.85;100.00
38558;BME280;24333;42.626;23.308;2022-11-20T09:54:12;91650.69;;;13.96;100.00
38558;BME280;24333;42.626;23.308;2022-11-20T09:56:42;91632.41;;;13.86;100.00
38558;BME280;24333;42.626;23.308;2022-11-20T09:59:19;91626.06;;;13.93;100.00
38558;BME280;24333;42.626;23.308;2022-11-20T10:04:39;91623.63;;;14.02;100.00
38558;BME280;24333;42.626;23.308;2022-11-20T10:31:37;91633.63;;;14.74;100.00
38558;BME280;24333;42.626;23.308;2022-11-20T10:37:37;91593.59;;;14.77;100.00
38558;BME280;24333;42.626;23.308;2022-11-20T11:30:45;91699.66;;;10.99;100.00
38558;BME280;24333;42.626;23.308;2022-11-20T11:33:19;91695.75;;;10.79;100.00
38558;BME280;24333;42.626;23.308;2022-11-20T11:41:34;91655.56;;;10.36;100.00
38558;BME280;24333;42.626;23.308;2022-11-20T11:47:25;91671.19;;;10.46;100.00
38558;BME280;24333;42.626;23.308;2022-11-20T12:57:58;91497.03;;;11.81;100.00
38558;BME280;24333;42.626;23.308;2022-11-20T13:00:26;91480.94;;;12.01;100.00
38558;BME280;24333;42.626;23.308;2022-11-20T13:06:26;91522.38;;;12.45;100.00
38558;BME280;24333;42.626;23.308;2022-11-20T13:09:31;91541.28;;;12.70;100.00
38558;BME280;24333;42.626;23.308;2022-11-20T13:19:58;91617.91;;;11.96;100.00
38558;BME280;24333;42.626;23.308;2022-11-20T13:25:38;91623.75;;;11.98;100.00
38558;BME280;24333;42.626;23.308;2022-11-20T13:28:27;91600.84;;;11.70;100.00
38558;BME280;24333;42.626;23.308;2022-11-20T13:30:57;91613.38;;;11.64;100.00
38558;BME280;24333;42.626;23.308;2022-11-20T13:40:13;91621.97;;;11.59;100.00
38558;BME280;24333;42.626;23.308;2022-11-20T13:45:24;91616.84;;;11.68;100.00
38558;BME280;24333;42.626;23.308;2022-11-20T13:47:53;91631.25;;;11.79;100.00
38558;BME280;24333;42.626;23.308;2022-11-20T13:50:25;91618.41;;;11.69;100.00
38558;BME280;24333;42.626;23.308;2022-11-20T13:53:37;91632.78;;;11.84;100.00
38558;BME280;24333;42.626;23.308;2022-11-20T14:09:11;91614.09;;;11.75;100.00
38558;BME280;24333;42.626;23.308;2022-11-20T14:11:47;91609.03;;;11.74;100.00
38558;BME280;24333;42.626;23.308;2022-11-20T14:14:13;91631.63;;;11.85;100.00
38558;BME280;24333;42.626;23.308;2022-11-20T14:16:40;91621.50;;;11.78;100.00
38558;BME280;24333;42.626;23.308;2022-11-20T14:19:25;91630.44;;;11.86;100.00
38558;BME280;24333;42.626;23.308;2022-11-20T14:21:55;91607.50;;;11.73;100.00
38558;BME280;24333;42.626;23.308;2022-11-20T14:24:32;91619.97;;;11.74;100.00
38558;BME280;24333;42.626;23.308;2022-11-20T14:26:58;91612.53;;;11.78;100.00
38558;BME280;24333;42.626;23.308;2022-11-20T14:29:28;91611.03;;;11.62;100.00
38558;BME280;24333;42.626;23.308;2022-11-20T14:31:56;91604.41;;;11.56;100.00
38558;BME280;24333;42.626;23.308;2022-11-20T14:34:27;91592.34;;;11.50;100.00
38558;BME280;24333;42.626;23.308;2022-11-20T14:37:00;91603.66;;;11.48;100.00
38558;BME280;24333;42.626;23.308;2022-11-20T14:39:35;91602.47;;;11.56;100.00
38558;BME280;24333;42.626;23.308;2022-11-20T14:42:24;91608.31;;;11.55;100.00
38558;BME280;24333;42.626;23.308;2022-11-20T14:45:07;91613.03;;;11.47;100.00
38558;BME280;24333;42.626;23.308;2022-11-20T14:47:37;91599.03;;;11.34;100.00
38558;BME280;24333;42.626;23.308;2022-11-20T14:50:30;91622.44;;;11.32;100.00
38558;BME280;24333;42.626;23.308;2022-11-20T15:29:27;91645.44;;;10.33;100.00
38558;BME280;24333;42.626;23.308;2022-11-20T15:31:54;91648.56;;;10.27;100.00
38558;BME280;24333;42.626;23.308;2022-11-20T15:34:42;91685.59;;;10.43;100.00
38558;BME280;24333;42.626;23.308;2022-11-20T15:41:11;91732.69;;;10.47;100.00
38558;BME280;24333;42.626;23.308;2022-11-20T15:43:46;91741.56;;;10.33;100.00
38558;BME280;24333;42.626;23.308;2022-11-20T15:47:09;91753.25;;;10.37;100.00
38558;BME280;24333;42.626;23.308;2022-11-20T15:49:44;91740.75;;;10.15;100.00
38558;BME280;24333;42.626;23.308;2022-11-20T15:52:10;91748.97;;;10.25;100.00
38558;BME280;24333;42.626;23.308;2022-11-20T15:54:36;91711.50;;;9.97;100.00
38558;BME280;24333;42.626;23.308;2022-11-20T15:57:09;91733.28;;;9.97;100.00
38558;BME280;24333;42.626;23.308;2022-11-20T15:59:46;91742.25;;;9.97;100.00
38558;BME280;24333;42.626;23.308;2022-11-20T16:02:12;91756.22;;;9.96;100.00
38558;BME280;24333;42.626;23.308;2022-11-20T16:04:38;91739.44;;;9.79;100.00
38558;BME280;24333;42.626;23.308;2022-11-20T16:07:39;91727.69;;;9.68;100.00
38558;BME280;24333;42.626;23.308;2022-11-20T16:10:26;91746.41;;;9.77;100.00
38558;BME280;24333;42.626;23.308;2022-11-20T16:13:14;91707.72;;;9.38;100.00
38558;BME280;24333;42.626;23.308;2022-11-20T16:16:40;91708.34;;;9.17;100.00
38558;BME280;24333;42.626;23.308;2022-11-20T18:04:03;91587.38;;;9.89;100.00
38558;BME280;24333;42.626;23.308;2022-11-20T18:06:38;91581.91;;;9.85;100.00
38558;BME280;24333;42.626;23.308;2022-11-20T18:09:22;91596.72;;;9.91;100.00
38558;BME280;24333;42.626;23.308;2022-11-20T20:25:32;91422.78;;;9.24;100.00
38558;BME280;24333;42.626;23.308;2022-11-20T20:27:58;91434.44;;;9.29;100.00
38558;BME280;24333;42.626;23.308;2022-11-20T21:42:12;91368.03;;;9.73;100.00
38558;BME280;24333;42.626;23.308;2022-11-20T22:00:48;91227.66;;;9.65;100.00
38558;BME280;24333;42.626;23.308;2022-11-20T22:03:14;91242.03;;;9.73;100.00
38558;BME280;24333;42.626;23.308;2022-11-20T22:05:41;91238.91;;;9.81;100.00
38558;BME280;24333;42.626;23.308;2022-11-20T22:08:06;91231.09;;;9.80;100.00
38558;BME280;24333;42.626;23.308;2022-11-20T22:10:32;91213.63;;;9.70;100.00
